Terminal Aerodrome Forecast
Issued by NWS Shreveport, LA

Home | Current Version | Previous Version | Text Only | Print | Product List | Glossary On
Versions: 1 2 3 4 5 6 7 8 9 10 11 12 13 14 15 16
000
FTUS44 KSHV 201807 RRA
TAFTYR
TAF
KTYR 201807Z 2018/2118 22012G20KT P6SM SCT250
     FM210000 19008KT P6SM SCT100 BKN250
     FM210700 19008KT P6SM SCT015
      TEMPO 2108/2110 BKN015
     FM211000 19007KT 5SM BR OVC010=

USA.gov is the U.S. government's official web portal to all federal, state and local government web resources and services.